Time;durP1;ratioP1;P1;durP2;ratioP2;P2;SDS_P1;SDS_P2;PMS_P1;PMS_P2;Temp;Humidity;BMP_temperature;BMP_pressure;BME280_temperature;BME280_humidity;BME280_pressure;Samples;Min_cycle;Max_cycle;Signal;HPM_P1;HPM_P2
2022/01/28 00:04:01;;;;;;;6.43;1.92;;;;;;;3.39;87.71;98708.19;8374182;28;20048;-78
2022/01/28 00:08:04;;;;;;;7.07;1.27;;;;;;;3.37;86.42;98689.00;8337661;28;20489;-77
2022/01/28 00:12:09;;;;;;;11.70;1.65;;;;;;;3.40;84.73;98694.56;8367544;28;20052;-76
2022/01/28 00:41:19;;;;;;;9.15;1.70;;;;;;;3.05;92.76;98710.69;8376634;28;20056;-77
2022/01/28 00:45:21;;;;;;;5.25;1.35;;;;;;;2.82;93.45;98701.34;8389433;28;20083;-76
2022/01/28 00:49:22;;;;;;;9.38;2.08;;;;;;;2.62;94.74;98690.69;8332029;28;20041;-76
2022/01/28 00:53:23;;;;;;;7.30;1.60;;;;;;;2.62;94.49;98709.38;8315954;28;20052;-77
2022/01/28 00:57:24;;;;;;;12.35;1.60;;;;;;;2.50;94.71;98712.28;8375076;28;20571;-77
2022/01/28 01:01:29;;;;;;;6.75;1.48;;;;;;;2.55;93.63;98692.81;8393504;28;20056;-77
2022/01/28 01:05:34;;;;;;;10.23;1.70;;;;;;;2.60;92.96;98700.81;8370346;28;20141;-76
2022/01/28 01:09:36;;;;;;;8.10;1.73;;;;;;;2.68;90.87;98702.97;8374113;28;20083;-77
2022/01/28 01:13:39;;;;;;;10.68;1.25;;;;;;;2.76;89.91;98710.41;8392524;28;20473;-77
2022/01/28 01:17:49;;;;;;;11.95;1.08;;;;;;;2.74;89.39;98701.91;8385620;28;20049;-77
2022/01/28 01:21:55;;;;;;;9.35;1.58;;;;;;;2.89;87.72;98704.56;8369797;28;20488;-77
2022/01/28 01:29:59;;;;;;;9.90;1.17;;;;;;;3.03;85.71;98693.31;8378696;28;20060;-77
2022/01/28 01:34:11;;;;;;;9.90;1.30;;;;;;;2.95;85.30;98708.03;8374370;28;20201;-76
2022/01/28 01:38:12;;;;;;;9.60;1.10;;;;;;;3.08;83.65;98701.31;8366150;28;20122;-76
2022/01/28 01:54:55;;;;;;;;;;;;;;;3.30;81.33;98677.78;8365768;28;20051;-77
2022/01/28 01:58:57;;;;;;;1.40;0.50;;;;;;;3.35;81.21;98696.47;8365934;28;20010;-77
2022/01/28 02:02:58;;;;;;;5.70;1.25;;;;;;;3.35;81.99;98691.13;8378433;28;20106;-77
2022/01/28 02:07:00;;;;;;;4.55;1.27;;;;;;;3.32;83.42;98702.34;8365444;28;20045;-77
2022/01/28 02:11:04;;;;;;;8.20;1.48;;;;;;;3.26;84.74;98692.75;8357904;28;20056;-78
2022/01/28 02:15:05;;;;;;;5.97;1.15;;;;;;;3.15;86.06;98691.19;8345978;28;20050;-77
2022/01/28 02:19:07;;;;;;;4.75;1.10;;;;;;;3.15;86.49;98699.19;8388078;28;20079;-77
2022/01/28 02:23:08;;;;;;;9.35;1.02;;;;;;;3.13;86.62;98693.31;8394566;28;20056;-75
2022/01/28 02:27:11;;;;;;;5.57;1.25;;;;;;;3.09;86.76;98692.25;8394977;28;20052;-76
2022/01/28 02:31:21;;;;;;;6.78;1.52;;;;;;;3.08;87.35;98695.97;8381849;28;20079;-77
2022/01/28 02:35:22;;;;;;;5.25;1.20;;;;;;;2.97;88.39;98696.00;8340509;28;20543;-77
2022/01/28 02:39:23;;;;;;;13.63;1.80;;;;;;;3.01;88.77;98711.47;8350147;28;20049;-76
2022/01/28 02:48:13;;;;;;;9.35;1.40;;;;;;;2.89;89.08;98720.56;8214400;28;20494;-77
2022/01/28 02:52:21;;;;;;;9.88;1.52;;;;;;;2.92;88.96;98720.00;8199597;28;20055;-76
2022/01/28 03:00:30;;;;;;;13.43;1.43;;;;;;;2.90;89.32;98727.50;8229242;28;20050;-76
2022/01/28 03:09:00;;;;;;;3.15;1.02;;;;;;;2.91;89.31;98739.75;8214632;28;20109;-77
2022/01/28 03:13:16;;;;;;;11.32;1.58;;;;;;;2.83;90.45;98742.97;8216571;28;20054;-77
2022/01/28 03:21:55;;;;;;;10.82;1.58;;;;;;;2.70;92.13;98754.16;8321478;28;20144;-76
2022/01/28 03:25:55;;;;;;;12.98;1.65;;;;;;;2.70;92.05;98756.81;8312120;28;20053;-76
2022/01/28 03:29:57;;;;;;;8.32;1.80;;;;;;;2.70;92.53;98769.34;8305352;28;20042;-77
2022/01/28 03:33:57;;;;;;;11.65;1.60;;;;;;;2.73;91.72;98764.28;8293489;28;20064;-77
2022/01/28 03:38:00;;;;;;;9.05;1.55;;;;;;;2.72;92.25;98757.34;8293263;28;20046;-78
2022/01/28 03:42:02;;;;;;;10.05;2.08;;;;;;;2.65;92.82;98767.47;8272798;28;20130;-77
2022/01/28 03:46:03;;;;;;;9.90;2.05;;;;;;;2.68;93.25;98761.63;8272159;28;20065;-77
2022/01/28 03:50:05;;;;;;;5.60;1.27;;;;;;;2.62;92.96;98768.00;8243968;28;20137;-77
2022/01/28 03:54:06;;;;;;;10.15;1.40;;;;;;;2.67;92.76;98768.03;8260194;28;20054;-76
2022/01/28 03:58:07;;;;;;;11.27;2.13;;;;;;;2.75;91.47;98772.81;8306478;28;20526;-76
2022/01/28 04:02:08;;;;;;;14.07;2.05;;;;;;;2.88;89.81;98769.63;8362545;28;20052;-77
2022/01/28 04:15:05;;;;;;;7.13;1.15;;;;;;;3.02;86.49;98787.75;8331259;28;20056;-76
2022/01/28 04:19:07;;;;;;;13.70;2.42;;;;;;;2.98;86.02;98782.97;8365550;28;20060;-76
2022/01/28 04:23:08;;;;;;;12.70;1.60;;;;;;;3.07;85.21;98785.13;8302945;28;20076;-76
2022/01/28 04:27:09;;;;;;;17.83;2.35;;;;;;;3.09;84.33;98789.09;8343692;28;20050;-75
2022/01/28 04:31:10;;;;;;;10.40;2.17;;;;;;;3.15;83.51;98797.91;8352290;28;20553;-76
2022/01/28 04:35:11;;;;;;;11.82;2.33;;;;;;;3.23;81.97;98805.34;8336812;28;20060;-75
2022/01/28 04:39:23;;;;;;;14.20;2.20;;;;;;;3.28;81.46;98813.34;8334828;28;20470;-76
2022/01/28 04:43:32;;;;;;;9.23;1.58;;;;;;;3.34;81.37;98785.59;8336076;28;20611;-76
2022/01/28 04:47:54;;;;;;;13.80;1.52;;;;;;;3.31;80.88;98812.84;8336122;28;20425;-76
2022/01/28 05:29:49;;;;;;;12.38;1.98;;;;;;;3.43;78.37;98848.06;8348941;28;20111;-75
2022/01/28 05:33:51;;;;;;;14.82;2.70;;;;;;;3.43;78.28;98869.44;8332355;28;20077;-78
2022/01/28 05:37:51;;;;;;;10.98;1.90;;;;;;;3.43;77.74;98873.97;8333352;28;20056;-77
2022/01/28 05:41:52;;;;;;;4.75;1.45;;;;;;;3.40;78.11;98875.28;8333063;28;20085;-77
2022/01/28 05:45:54;;;;;;;7.30;1.70;;;;;;;3.47;78.08;98891.03;8333293;28;20099;-77
2022/01/28 05:49:55;;;;;;;15.38;1.80;;;;;;;3.48;77.63;98893.44;8333040;28;20057;-77
2022/01/28 05:53:58;;;;;;;10.73;2.03;;;;;;;3.37;78.57;98934.56;8332747;28;20136;-77
2022/01/28 05:58:02;;;;;;;12.70;2.17;;;;;;;3.38;78.72;98898.78;8332645;28;20072;-76
2022/01/28 06:02:03;;;;;;;18.58;2.17;;;;;;;3.34;78.81;98919.06;8332590;28;20104;-78
2022/01/28 06:06:04;;;;;;;10.68;1.90;;;;;;;3.46;78.38;98911.59;8332139;28;20045;-77
2022/01/28 06:10:05;;;;;;;15.95;1.77;;;;;;;3.36;78.71;98911.59;8354668;28;22032;-75
2022/01/28 06:14:09;;;;;;;8.60;1.17;;;;;;;3.45;78.08;98926.00;8398055;28;20059;-74
2022/01/28 06:18:10;;;;;;;19.02;1.98;;;;;;;3.33;78.75;98928.16;8397511;28;20057;-75
2022/01/28 06:22:16;;;;;;;12.82;1.85;;;;;;;3.38;79.00;98928.94;8396367;28;20052;-75
2022/01/28 06:26:16;;;;;;;20.35;2.97;;;;;;;3.31;79.58;98947.09;8370506;28;20047;-74
2022/01/28 06:30:19;;;;;;;15.32;1.98;;;;;;;3.31;79.74;98946.28;8364695;28;20053;-75
2022/01/28 06:34:20;;;;;;;25.58;2.55;;;;;;;3.28;80.08;98946.81;8374138;28;20045;-74
2022/01/28 06:38:21;;;;;;;12.70;2.38;;;;;;;3.19;80.66;98948.41;8395634;28;20140;-74
2022/01/28 06:42:22;;;;;;;13.73;1.88;;;;;;;3.26;79.71;98959.63;8370219;28;20052;-73
2022/01/28 06:46:22;;;;;;;16.75;2.05;;;;;;;3.33;79.30;98960.97;8346205;28;20516;-74
2022/01/28 06:50:23;;;;;;;19.80;2.83;;;;;;;3.31;79.54;98956.97;8363825;28;20132;-74
2022/01/28 06:54:24;;;;;;;15.13;2.10;;;;;;;3.32;79.20;98958.56;8380089;28;20049;-74
2022/01/28 06:58:25;;;;;;;22.55;2.28;;;;;;;3.37;79.08;98966.59;8363831;28;20119;-75
2022/01/28 07:02:29;;;;;;;11.10;1.75;;;;;;;3.42;78.76;98985.28;8364357;28;20135;-75
2022/01/28 07:06:32;;;;;;;15.07;2.38;;;;;;;3.45;78.91;98979.41;8364147;28;20049;-75
2022/01/28 07:10:33;;;;;;;13.48;2.28;;;;;;;3.40;78.73;99006.88;8387696;28;20152;-75
2022/01/28 07:14:34;;;;;;;22.40;2.45;;;;;;;3.39;78.74;99001.81;8369166;28;20109;-75
2022/01/28 07:18:35;;;;;;;14.02;3.35;;;;;;;3.33;79.33;99026.91;8396347;28;20086;-75
2022/01/28 07:22:35;;;;;;;12.90;2.25;;;;;;;3.43;78.73;99024.25;8396164;28;20500;-75
2022/01/28 07:26:36;;;;;;;12.25;2.45;;;;;;;3.47;79.14;99017.31;8395569;28;20463;-74
2022/01/28 07:30:37;;;;;;;15.77;2.42;;;;;;;3.44;79.45;99036.53;8333632;28;20135;-74
2022/01/28 07:34:38;;;;;;;20.83;2.28;;;;;;;3.40;80.10;99036.25;8385417;28;20044;-74
2022/01/28 07:38:39;;;;;;;24.77;3.03;;;;;;;3.30;81.11;99054.09;8326821;28;20155;-75
2022/01/28 07:42:41;;;;;;;18.92;2.65;;;;;;;3.35;80.85;99054.13;8344226;28;20079;-75
2022/01/28 07:46:41;;;;;;;18.20;2.58;;;;;;;3.37;80.26;99068.03;8367547;28;20048;-74
2022/01/28 07:50:42;;;;;;;21.67;3.08;;;;;;;3.37;80.77;99078.69;8361364;28;20557;-75
2022/01/28 07:54:48;;;;;;;17.42;4.03;;;;;;;3.49;80.52;99073.91;8386304;28;20041;-75
2022/01/28 07:58:49;;;;;;;24.63;3.55;;;;;;;3.34;81.97;99121.91;8363415;28;20049;-75
2022/01/28 08:02:49;;;;;;;18.70;2.67;;;;;;;3.34;81.97;99101.38;8364513;28;20095;-75
2022/01/28 08:06:50;;;;;;;19.30;3.28;;;;;;;3.32;82.91;99118.72;8372675;28;20052;-74
2022/01/28 08:10:51;;;;;;;16.60;1.98;;;;;;;3.23;83.22;99114.94;8310997;28;20481;-74
2022/01/28 08:14:54;;;;;;;22.52;2.88;;;;;;;3.32;82.47;99124.06;8362862;28;20041;-75
2022/01/28 08:18:54;;;;;;;17.58;2.20;;;;;;;3.25;83.50;99134.16;8384105;28;20048;-76
2022/01/28 08:22:57;;;;;;;22.90;2.80;;;;;;;3.27;83.89;99132.03;8366992;28;20102;-73
2022/01/28 08:26:58;;;;;;;16.40;2.38;;;;;;;3.19;84.83;99145.88;8361618;28;20428;-74
2022/01/28 08:30:59;;;;;;;26.67;3.75;;;;;;;3.20;84.68;99144.81;8330999;28;20037;-75
2022/01/28 08:35:00;;;;;;;17.08;2.25;;;;;;;3.27;84.09;99153.41;8361408;28;20041;-76
2022/01/28 08:39:04;;;;;;;13.82;2.92;;;;;;;3.23;85.12;99146.94;8361475;28;20049;-75
2022/01/28 08:43:04;;;;;;;23.27;3.08;;;;;;;3.23;84.87;99168.31;8259233;28;20054;-74
2022/01/28 08:47:06;;;;;;;15.65;2.97;;;;;;;3.23;84.80;99178.97;8278048;28;20114;-74
2022/01/28 08:51:07;;;;;;;24.25;2.72;;;;;;;3.23;84.72;99195.78;8268239;28;20046;-75
2022/01/28 08:55:08;;;;;;;27.65;3.50;;;;;;;3.16;85.42;99199.78;8265627;28;20547;-74
2022/01/28 08:59:08;;;;;;;26.13;3.60;;;;;;;3.27;85.55;99212.13;8292190;28;20053;-75
2022/01/28 09:03:10;;;;;;;19.80;2.60;;;;;;;3.09;87.19;99220.53;8290897;28;20053;-74
2022/01/28 09:07:10;;;;;;;17.92;3.53;;;;;;;2.97;88.56;99234.84;8284192;28;20067;-74
2022/01/28 09:15:24;;;;;;;20.23;5.00;;;;;;;2.97;90.86;99240.19;8291600;28;20050;-74
2022/01/28 09:19:25;;;;;;;29.75;5.75;;;;;;;2.89;91.80;99270.03;8312466;28;20049;-74
2022/01/28 09:23:26;;;;;;;46.25;12.50;;;;;;;2.83;92.73;99281.69;8304472;28;20085;-73
2022/01/28 09:27:26;;;;;;;39.63;10.85;;;;;;;2.81;93.35;99272.34;8301462;28;20046;-74
2022/01/28 09:31:27;;;;;;;25.40;4.32;;;;;;;2.75;94.21;99300.81;8301402;28;20065;-74
2022/01/28 09:35:28;;;;;;;59.75;30.70;;;;;;;2.75;95.06;99311.47;8301470;28;20046;-75
2022/01/28 09:39:31;;;;;;;25.13;8.38;;;;;;;2.75;95.60;99316.81;8278871;28;20049;-75
2022/01/28 09:43:32;;;;;;;21.08;4.70;;;;;;;2.80;95.65;99319.53;8315397;28;20494;-74
2022/01/28 09:47:33;;;;;;;56.85;22.25;;;;;;;2.82;95.51;99333.44;8312198;28;20057;-75
2022/01/28 09:51:34;;;;;;;16.80;3.20;;;;;;;2.88;95.63;99327.09;8304910;28;20428;-76
2022/01/28 09:55:35;;;;;;;39.45;13.80;;;;;;;2.93;95.92;99324.47;8300490;28;20076;-75
2022/01/28 09:59:37;;;;;;;24.70;3.50;;;;;;;2.97;95.44;99346.91;8300387;28;20053;-75
2022/01/28 10:03:38;;;;;;;25.52;4.80;;;;;;;2.98;95.83;99343.19;8300336;28;20112;-76
2022/01/28 10:08:18;;;;;;;30.67;5.32;;;;;;;3.14;95.33;99356.66;8302393;28;20102;-76
2022/01/28 10:12:24;;;;;;;20.27;3.90;;;;;;;3.22;94.93;99369.56;8341881;28;20132;-75
2022/01/28 10:16:27;;;;;;;20.02;3.05;;;;;;;3.17;94.45;99366.84;8303008;28;20451;-75
2022/01/28 10:20:28;;;;;;;38.03;10.63;;;;;;;3.10;94.57;99361.72;8369184;28;20562;-75
2022/01/28 10:24:29;;;;;;;24.02;4.35;;;;;;;3.19;94.08;99386.06;8388048;28;20056;-76
2022/01/28 10:28:33;;;;;;;43.10;4.10;;;;;;;3.13;93.89;99381.72;8365441;28;20048;-75
2022/01/28 10:32:34;;;;;;;20.65;2.97;;;;;;;3.14;93.55;99378.00;8365008;28;20451;-76
2022/01/28 10:36:35;;;;;;;37.90;10.07;;;;;;;3.11;93.31;99383.88;8329645;28;20125;-77
2022/01/28 10:40:36;;;;;;;20.33;3.35;;;;;;;3.24;92.42;99383.44;8365162;28;20052;-76
2022/01/28 10:44:58;;;;;;;41.22;7.88;;;;;;;3.23;91.58;99403.97;8364909;28;20076;-76
2022/01/28 10:49:04;;;;;;;115.35;24.92;;;;;;;3.32;90.64;99399.00;8313353;28;20500;-75
2022/01/28 10:53:11;;;;;;;33.83;6.57;;;;;;;3.43;89.93;99406.03;8364879;28;20056;-75
2022/01/28 10:57:12;;;;;;;64.47;16.67;;;;;;;3.49;89.03;99412.22;8364694;28;20485;-75
2022/01/28 11:01:14;;;;;;;90.05;34.92;;;;;;;3.61;88.02;99420.84;8364247;28;20080;-76
2022/01/28 11:05:15;;;;;;;33.10;9.93;;;;;;;3.60;88.14;99425.38;8364177;28;20052;-75
2022/01/28 11:09:19;;;;;;;18.17;3.05;;;;;;;3.66;86.24;99424.34;8364232;28;20498;-77
2022/01/28 11:13:20;;;;;;;24.42;3.58;;;;;;;3.65;86.67;99443.31;8396739;28;20056;-75
2022/01/28 11:17:21;;;;;;;27.48;3.08;;;;;;;3.74;86.57;99461.28;8397234;28;20389;-76
2022/01/28 11:21:33;;;;;;;19.52;3.30;;;;;;;3.88;85.99;99458.19;8396696;28;20048;-76
2022/01/28 11:25:44;;;;;;;21.15;2.95;;;;;;;3.97;83.00;99451.28;8378421;28;20054;-75
2022/01/28 11:29:45;;;;;;;23.88;5.20;;;;;;;4.01;82.13;99465.78;8378722;28;20102;-75
2022/01/28 11:33:49;;;;;;;20.88;3.00;;;;;;;3.98;82.06;99474.28;8378713;28;20071;-77
2022/01/28 11:37:50;;;;;;;18.23;3.20;;;;;;;4.02;82.22;99475.41;8396499;28;20048;-75
2022/01/28 11:42:23;;;;;;;30.33;3.58;;;;;;;4.05;81.50;99481.03;8326397;28;20545;-76
2022/01/28 11:46:27;;;;;;;28.83;6.65;;;;;;;4.13;81.21;99482.41;8197194;29;20043;-76
2022/01/28 11:50:28;;;;;;;23.63;3.70;;;;;;;4.16;80.84;99492.59;8197091;29;20047;-74
2022/01/28 11:54:35;;;;;;;44.60;14.98;;;;;;;4.16;79.87;99488.06;8196945;29;20070;-76
2022/01/28 11:59:08;;;;;;;22.63;8.17;;;;;;;4.19;79.63;99492.06;8197168;29;20168;-77
2022/01/28 12:03:22;;;;;;;27.55;6.15;;;;;;;4.12;80.03;99499.53;8196893;29;20077;-77
2022/01/28 12:07:24;;;;;;;24.98;4.80;;;;;;;4.14;79.65;99513.41;8196907;29;20518;-77
2022/01/28 12:11:44;;;;;;;76.75;23.95;;;;;;;4.08;79.62;99506.41;8196367;29;20109;-76
2022/01/28 12:15:58;;;;;;;67.28;21.08;;;;;;;4.01;78.78;99524.56;8196692;29;20530;-75
2022/01/28 12:20:09;;;;;;;60.08;17.20;;;;;;;4.09;77.24;99534.75;8196563;29;20569;-76
2022/01/28 12:24:19;;;;;;;53.00;15.55;;;;;;;3.98;77.79;99527.72;8389235;28;20511;-76
2022/01/28 12:28:23;;;;;;;26.13;7.72;;;;;;;4.08;76.47;99538.50;8395702;28;20049;-76
2022/01/28 12:32:24;;;;;;;15.73;2.90;;;;;;;3.99;77.09;99542.69;8392550;28;20044;-76
2022/01/28 12:36:34;;;;;;;20.30;3.03;;;;;;;4.00;77.21;99547.00;8376962;28;20124;-76
2022/01/28 12:40:36;;;;;;;17.67;2.63;;;;;;;4.01;77.02;99551.28;8398389;28;20483;-77
2022/01/28 12:44:38;;;;;;;24.27;3.15;;;;;;;4.04;76.58;99558.78;8317451;28;20052;-77
2022/01/28 12:48:50;;;;;;;17.77;2.78;;;;;;;4.00;76.68;99574.53;8368470;28;20049;-76
2022/01/28 12:52:51;;;;;;;25.92;2.72;;;;;;;3.96;76.77;99553.91;8368106;28;20081;-76
2022/01/28 12:56:53;;;;;;;18.88;2.85;;;;;;;3.91;77.43;99564.56;8368058;28;20041;-78
2022/01/28 13:00:54;;;;;;;25.48;3.33;;;;;;;3.86;77.95;99575.97;8352568;28;20072;-77
2022/01/28 13:09:10;;;;;;;27.92;3.08;;;;;;;3.92;76.70;99576.84;8386044;28;20055;-77
2022/01/28 13:13:12;;;;;;;11.52;2.65;;;;;;;3.89;77.19;99598.72;8395469;28;20411;-78
2022/01/28 13:17:18;;;;;;;17.67;3.40;;;;;;;3.82;77.75;99610.44;8290584;28;20053;-78
2022/01/28 13:21:19;;;;;;;23.38;3.45;;;;;;;3.83;77.96;99601.34;8367347;28;20412;-77
2022/01/28 13:25:22;;;;;;;22.35;2.85;;;;;;;3.78;78.07;99620.00;8348469;28;20508;-79
2022/01/28 13:29:35;;;;;;;15.88;3.22;;;;;;;3.74;78.19;99629.59;8370935;28;20044;-75
2022/01/28 13:33:36;;;;;;;16.70;2.97;;;;;;;3.74;78.35;99640.28;8368039;28;20484;-77
2022/01/28 13:37:40;;;;;;;22.83;2.63;;;;;;;3.74;78.94;99640.28;8401086;28;20143;-77
2022/01/28 13:41:41;;;;;;;19.48;3.63;;;;;;;3.67;79.23;99634.31;8348845;28;20502;-76
2022/01/28 13:45:50;;;;;;;18.80;3.50;;;;;;;3.63;79.96;99649.22;8372183;28;20053;-77
2022/01/28 13:49:58;;;;;;;20.25;2.72;;;;;;;3.66;79.27;99658.59;8278225;28;20057;-78
2022/01/28 13:58:05;;;;;;;23.30;3.80;;;;;;;3.64;79.28;99666.88;8293890;28;20080;-76
2022/01/28 14:02:15;;;;;;;16.17;2.80;;;;;;;3.65;78.73;99657.78;8292065;28;20120;-78
2022/01/28 14:06:18;;;;;;;23.48;3.30;;;;;;;3.61;79.14;99666.56;8287593;28;20137;-77
2022/01/28 14:10:19;;;;;;;21.58;3.22;;;;;;;3.69;78.52;99669.59;8296536;28;20050;-76
2022/01/28 14:14:32;;;;;;;29.27;6.07;;;;;;;3.71;77.97;99662.13;8297033;28;20049;-77
2022/01/28 14:18:32;;;;;;;23.88;5.38;;;;;;;3.73;77.76;99678.72;8297218;28;20193;-77
2022/01/28 14:22:34;;;;;;;23.90;8.10;;;;;;;3.77;77.64;99676.34;8296838;28;20045;-76
2022/01/28 14:26:41;;;;;;;17.00;2.67;;;;;;;3.74;77.58;99696.38;8337400;28;20072;-77
2022/01/28 14:30:43;;;;;;;25.35;6.00;;;;;;;3.68;78.31;99710.72;8353588;28;20504;-77
2022/01/28 14:34:45;;;;;;;58.50;20.42;;;;;;;3.74;77.97;99715.06;8366494;28;20045;-77
2022/01/28 14:38:46;;;;;;;29.67;10.68;;;;;;;4.05;77.94;99731.44;8315385;28;20117;-76
2022/01/28 14:42:47;;;;;;;22.25;4.32;;;;;;;4.35;76.23;99731.75;8381043;28;20511;-77
2022/01/28 14:46:48;;;;;;;13.63;2.40;;;;;;;4.42;74.02;99753.75;8351282;28;20056;-77
2022/01/28 14:50:49;;;;;;;14.52;2.92;;;;;;;4.28;75.09;99760.59;8374711;28;20139;-77
2022/01/28 14:54:50;;;;;;;15.57;2.67;;;;;;;4.26;74.49;99770.72;8364587;28;20106;-77
2022/01/28 14:58:51;;;;;;;14.90;2.75;;;;;;;4.12;75.25;99780.19;8329907;28;20053;-78
2022/01/28 15:02:53;;;;;;;14.77;2.25;;;;;;;3.99;75.31;99792.06;8363415;28;20467;-76
2022/01/28 15:06:53;;;;;;;13.13;2.60;;;;;;;3.82;75.82;99797.44;8364010;28;20183;-77
2022/01/28 15:10:56;;;;;;;15.82;2.53;;;;;;;3.75;76.54;99818.19;8395685;28;20144;-77
2022/01/28 15:14:58;;;;;;;10.75;2.28;;;;;;;3.72;76.87;99813.34;8397234;28;20055;-77
2022/01/28 15:18:59;;;;;;;15.43;2.97;;;;;;;3.76;76.40;99803.78;8370935;28;20510;-77
2022/01/28 15:23:00;;;;;;;21.00;2.80;;;;;;;3.50;77.22;99799.13;8362990;28;20767;-77
2022/01/28 15:27:02;;;;;;;15.82;3.25;;;;;;;3.43;77.49;99803.88;8349720;28;20174;-77
2022/01/28 15:39:35;;;;;;;21.08;3.05;;;;;;;3.31;78.08;99816.50;8364298;28;20048;-77
2022/01/28 15:43:36;;;;;;;13.90;3.58;;;;;;;3.34;77.92;99826.66;8383838;28;20080;-78
2022/01/28 15:47:39;;;;;;;12.88;2.63;;;;;;;3.35;77.76;99838.97;8362183;28;20044;-79
2022/01/28 15:51:40;;;;;;;22.80;5.38;;;;;;;3.32;77.57;99831.47;8367519;28;20048;-79
2022/01/28 15:55:40;;;;;;;41.17;12.68;;;;;;;3.32;77.44;99844.81;8366444;28;20044;-78
2022/01/28 15:59:41;;;;;;;29.63;8.13;;;;;;;3.38;76.77;99854.53;8375362;28;20480;-77
2022/01/28 16:03:43;;;;;;;17.35;3.60;;;;;;;3.33;77.12;99867.78;8378475;28;20055;-77
2022/01/28 16:07:44;;;;;;;16.52;2.80;;;;;;;3.40;76.22;99873.75;8377901;28;20040;-77
2022/01/28 16:11:53;;;;;;;19.48;2.65;;;;;;;3.32;76.38;99883.00;8370995;28;20053;-79
2022/01/28 16:19:57;;;;;;;11.80;4.32;;;;;;;3.30;76.02;99893.09;8386370;28;20049;-78
2022/01/28 16:23:59;;;;;;;16.52;4.35;;;;;;;3.38;74.92;99913.25;8360438;28;20136;-77
2022/01/28 16:27:59;;;;;;;16.30;6.13;;;;;;;3.32;75.45;99915.03;8369261;28;20060;-77
2022/01/28 16:32:01;;;;;;;14.32;2.70;;;;;;;3.21;75.07;99939.13;8363065;28;20503;-77
2022/01/28 16:36:02;;;;;;;12.98;2.53;;;;;;;3.20;73.25;99948.16;8365073;28;20545;-78
2022/01/28 16:40:08;;;;;;;13.48;2.67;;;;;;;2.95;74.39;99960.00;8357182;28;20048;-78
2022/01/28 16:44:14;;;;;;;4.45;1.85;;;;;;;2.85;73.73;99973.16;8312590;28;20252;-78
2022/01/28 16:48:15;;;;;;;13.82;2.95;;;;;;;2.78;72.69;99977.00;8363046;28;20049;-77
2022/01/28 16:52:17;;;;;;;8.13;2.25;;;;;;;2.58;72.75;99982.72;8362748;28;20122;-77
2022/01/28 16:56:18;;;;;;;7.75;2.08;;;;;;;2.54;70.62;99992.22;8322317;28;20049;-78
2022/01/28 17:00:21;;;;;;;9.15;1.85;;;;;;;2.38;71.31;100008.97;8394124;28;20135;-77
2022/01/28 17:04:22;;;;;;;9.20;1.80;;;;;;;2.26;71.11;99994.81;8395693;28;20146;-76
2022/01/28 17:08:23;;;;;;;9.80;1.65;;;;;;;2.21;69.38;100019.50;8395612;28;20057;-79
2022/01/28 17:16:26;;;;;;;6.93;1.40;;;;;;;1.99;69.23;100032.59;8366120;28;20119;-78
2022/01/28 17:20:28;;;;;;;8.05;2.10;;;;;;;1.94;67.77;100035.13;8364025;28;20057;-77
2022/01/28 17:24:28;;;;;;;7.20;1.73;;;;;;;1.88;68.95;100041.38;8361193;28;20504;-78
2022/01/28 17:28:30;;;;;;;3.60;1.40;;;;;;;1.90;67.32;100028.66;8387265;28;20053;-78
2022/01/28 17:32:30;;;;;;;4.57;2.00;;;;;;;1.87;66.81;100045.06;8378518;28;20055;-74
2022/01/28 17:36:33;;;;;;;9.20;1.85;;;;;;;1.86;65.77;100048.78;8374616;28;20053;-76
2022/01/28 17:40:35;;;;;;;11.88;2.10;;;;;;;1.74;66.58;100061.25;8375947;28;20538;-77
2022/01/28 17:44:36;;;;;;;6.85;1.80;;;;;;;1.77;65.35;100066.13;8354868;28;20063;-77
2022/01/28 17:48:37;;;;;;;5.85;1.70;;;;;;;1.66;66.48;100074.88;8376325;28;20703;-77
2022/01/28 17:52:39;;;;;;;8.15;2.00;;;;;;;1.61;66.43;100080.09;8400562;28;20052;-76
2022/01/28 17:56:39;;;;;;;13.82;4.85;;;;;;;1.57;66.52;100092.22;8400727;28;20037;-76
2022/01/28 18:00:41;;;;;;;6.72;2.33;;;;;;;1.49;67.17;100111.16;8380644;28;20465;-76
2022/01/28 18:04:42;;;;;;;9.52;3.17;;;;;;;1.45;67.36;100115.31;8399995;28;20048;-76
2022/01/28 18:08:43;;;;;;;6.85;2.50;;;;;;;1.41;67.20;100114.16;8355127;28;20045;-78
2022/01/28 18:12:44;;;;;;;7.05;2.22;;;;;;;1.34;67.85;100121.41;8399673;28;20076;-77
2022/01/28 18:16:45;;;;;;;9.23;2.13;;;;;;;1.30;67.47;100122.88;8389912;28;20053;-78
2022/01/28 18:20:50;;;;;;;7.25;2.30;;;;;;;1.24;67.95;100133.38;8390581;28;20131;-78
2022/01/28 18:24:51;;;;;;;6.70;1.92;;;;;;;1.19;68.44;100143.88;8376525;28;20454;-77
2022/01/28 18:28:51;;;;;;;8.20;1.83;;;;;;;1.14;69.01;100141.06;8390381;28;20052;-76
2022/01/28 18:32:52;;;;;;;5.22;1.88;;;;;;;1.07;68.92;100145.66;8379773;28;20056;-76
2022/01/28 18:36:53;;;;;;;7.70;3.22;;;;;;;1.03;69.07;100144.47;8374247;28;20048;-77
2022/01/28 18:40:55;;;;;;;5.50;1.98;;;;;;;1.07;68.30;100145.66;8353838;28;20362;-76
2022/01/28 18:44:57;;;;;;;8.57;1.50;;;;;;;1.01;68.48;100151.84;8382373;28;20080;-77
2022/01/28 18:48:59;;;;;;;7.13;2.00;;;;;;;1.00;68.62;100160.88;8376597;28;20443;-77
2022/01/28 18:53:01;;;;;;;4.93;1.90;;;;;;;1.00;68.40;100176.84;8374875;28;20546;-77
2022/01/28 18:57:03;;;;;;;8.82;2.08;;;;;;;0.97;68.72;100182.59;8345715;28;20139;-77
2022/01/28 19:01:04;;;;;;;8.63;2.20;;;;;;;0.91;68.67;100178.16;8384272;28;20052;-77
2022/01/28 19:05:09;;;;;;;8.05;1.98;;;;;;;0.83;69.02;100186.41;8342395;28;20071;-76
2022/01/28 19:09:11;;;;;;;9.40;2.30;;;;;;;0.80;69.18;100181.53;8325410;28;20044;-77
2022/01/28 19:13:17;;;;;;;11.20;3.13;;;;;;;0.83;69.11;100189.06;8389658;28;20183;-77
2022/01/28 19:17:18;;;;;;;7.75;2.88;;;;;;;0.77;69.19;100197.94;8380167;28;20055;-77
2022/01/28 19:21:20;;;;;;;6.05;2.15;;;;;;;0.78;68.70;100204.88;8369836;28;20089;-77
2022/01/28 19:25:20;;;;;;;32.17;14.07;;;;;;;0.74;69.56;100203.69;8395185;28;20140;-77
2022/01/28 19:29:21;;;;;;;6.47;2.05;;;;;;;0.64;69.63;100211.31;8397292;28;20041;-75
2022/01/28 19:33:22;;;;;;;9.13;2.58;;;;;;;0.63;70.03;100223.00;8320222;28;20053;-77
2022/01/28 19:37:23;;;;;;;7.00;2.95;;;;;;;0.65;69.57;100236.88;8372301;28;20135;-77
2022/01/28 19:41:24;;;;;;;7.00;2.20;;;;;;;0.63;69.68;100238.97;8367638;28;20133;-76
2022/01/28 19:45:27;;;;;;;8.90;2.60;;;;;;;0.56;70.18;100243.50;8396279;28;20052;-76
2022/01/28 19:49:29;;;;;;;10.68;3.17;;;;;;;0.50;70.45;100249.66;8378570;28;20049;-78
2022/01/28 19:53:31;;;;;;;6.65;2.15;;;;;;;0.43;70.44;100255.84;8353242;28;20055;-77
2022/01/28 19:57:33;;;;;;;6.22;2.40;;;;;;;0.39;70.63;100259.97;8368440;28;20542;-77
2022/01/28 20:01:39;;;;;;;8.38;2.63;;;;;;;0.34;70.88;100257.13;8369012;28;20049;-77
2022/01/28 20:05:40;;;;;;;9.27;2.30;;;;;;;0.30;71.11;100277.19;8366236;28;20045;-78
2022/01/28 20:09:41;;;;;;;8.05;2.30;;;;;;;0.30;70.52;100282.50;8365838;28;20053;-78
2022/01/28 20:13:43;;;;;;;10.38;3.70;;;;;;;0.32;70.80;100291.06;8366430;28;20419;-77
2022/01/28 20:17:44;;;;;;;11.25;2.55;;;;;;;0.21;71.34;100289.06;8312395;28;20049;-78
2022/01/28 20:21:45;;;;;;;9.80;2.70;;;;;;;0.22;70.98;100290.72;8362173;28;20133;-77
2022/01/28 20:25:49;;;;;;;10.60;3.10;;;;;;;0.22;70.93;100304.00;8314978;28;20124;-77
2022/01/28 20:29:50;;;;;;;5.03;1.85;;;;;;;0.18;71.03;100300.16;8371851;28;20044;-77
2022/01/28 20:33:51;;;;;;;7.57;2.28;;;;;;;0.22;69.81;100285.41;8362402;28;20132;-77
2022/01/28 20:37:55;;;;;;;10.07;2.42;;;;;;;0.19;70.52;100288.50;8360562;28;20052;-77
2022/01/28 20:41:56;;;;;;;16.67;2.67;;;;;;;0.18;70.31;100289.50;8362850;28;20057;-77
2022/01/28 20:45:58;;;;;;;7.13;2.15;;;;;;;0.13;70.73;100286.69;8381969;28;20040;-76
2022/01/28 20:49:59;;;;;;;23.33;7.15;;;;;;;0.10;70.75;100303.06;8329939;28;20067;-78
2022/01/28 20:54:01;;;;;;;16.77;6.50;;;;;;;0.08;71.22;100305.09;8392491;28;20048;-78
2022/01/28 20:58:03;;;;;;;10.90;3.85;;;;;;;-0.01;71.51;100311.69;8383681;28;20044;-77
2022/01/28 21:02:04;;;;;;;13.77;3.55;;;;;;;-0.08;72.23;100326.81;8335759;28;20052;-78
2022/01/28 21:06:06;;;;;;;8.85;3.25;;;;;;;-0.10;72.50;100339.47;8382928;28;20052;-77
2022/01/28 21:10:08;;;;;;;12.70;3.65;;;;;;;-0.11;72.79;100348.50;8382762;28;20060;-76
2022/01/28 21:14:10;;;;;;;14.93;3.25;;;;;;;-0.13;72.85;100361.16;8400517;28;20048;-76
2022/01/28 21:18:10;;;;;;;8.65;3.47;;;;;;;-0.15;72.93;100349.91;8400289;28;20048;-76
2022/01/28 21:22:12;;;;;;;15.02;3.97;;;;;;;-0.19;73.31;100351.34;8385810;28;20053;-78